DXXX

Lomé-Tokoin Airport

Lomé, Togo
METAR DXXX 210400Z 26006KT 8000 FEW010 27/25 Q1010 NOSIG
Observed Flight Rules
Jan-21 @ 04:00 UTC (38 minutes ago) Marginal Visual Flight Rules
Wind Visibility Clouds
260° at 6 knots 7,998 meters
  • Few at 1,000' AGL
Temperatures Readings
Current 27°C / 81°F
Dewpoint 25°C / 77°F
Humidity 89%
Altimeter 29.82" Hg
Pressure 1010 hPa
Elevation 25
METAR DXXX 210400Z 26006KT 8000 FEW010 27/25 Q1010 NOSIG
Observed Flight Rules
Jan-21 @ 04:00 UTC
(38 minutes ago)
MVFR
Wind Visibility
260° at 6 knots 7,998 meters
Clouds
  • Few at 1,000' AGL
Temperature Dewpoint
27°C / 81°F 25°C / 77°F
Humidity Altimeter Pressure
89% 29.82" Hg 1010 hPa